Time;durP1;ratioP1;P1;durP2;ratioP2;P2;SDS_P1;SDS_P2;PMS_P1;PMS_P2;Temp;Humidity;BMP_temperature;BMP_pressure;BME280_temperature;BME280_humidity;BME280_pressure;Samples;Min_cycle;Max_cycle;Signal;HPM_P1;HPM_P2
2022/02/13 00:02:06;;;;;;;19.75;11.98;;;-0.20;81.10;;;;;;4996019;28;20357;-76
2022/02/13 00:04:35;;;;;;;18.27;10.48;;;-0.20;81.10;;;;;;4994652;28;20239;-77
2022/02/13 00:07:02;;;;;;;16.00;9.65;;;-0.20;81.00;;;;;;4995899;28;20212;-79
2022/02/13 00:09:31;;;;;;;14.85;10.10;;;-0.20;80.60;;;;;;4996317;28;20291;-77
2022/02/13 00:12:00;;;;;;;16.48;10.38;;;-0.20;79.90;;;;;;4997092;28;20224;-78
2022/02/13 00:14:28;;;;;;;17.73;9.95;;;-0.20;80.70;;;;;;4997784;28;20216;-78
2022/02/13 00:16:57;;;;;;;13.45;9.95;;;-0.30;79.90;;;;;;5016765;28;20261;-77
2022/02/13 00:19:24;;;;;;;16.38;9.60;;;-0.40;80.20;;;;;;5016406;28;20270;-77
2022/02/13 00:21:51;;;;;;;16.23;10.30;;;-0.40;80.70;;;;;;5002837;28;20225;-77
2022/02/13 00:24:18;;;;;;;15.57;10.07;;;-0.40;80.80;;;;;;4997981;28;20216;-77
2022/02/13 00:26:46;;;;;;;15.80;9.98;;;-0.30;80.40;;;;;;5013831;28;20245;-78
2022/02/13 00:29:13;;;;;;;19.05;10.55;;;-0.30;79.90;;;;;;5021721;28;20254;-77
2022/02/13 00:31:39;;;;;;;14.88;10.20;;;-0.30;80.00;;;;;;5020191;28;20300;-78
2022/02/13 00:34:08;;;;;;;20.42;9.55;;;-0.30;80.30;;;;;;5015009;28;20208;-80
2022/02/13 00:36:35;;;;;;;13.55;8.80;;;-0.40;80.50;;;;;;5027463;28;20214;-78
2022/02/13 00:39:01;;;;;;;14.55;9.10;;;-0.40;81.00;;;;;;5028984;28;20231;-78
2022/02/13 00:41:28;;;;;;;12.85;8.68;;;-0.40;81.00;;;;;;5029169;28;20228;-79
2022/02/13 00:43:55;;;;;;;15.20;8.77;;;-0.40;80.60;;;;;;5018142;28;20207;-78
2022/02/13 00:46:23;;;;;;;15.32;9.10;;;-0.50;80.90;;;;;;5005476;28;20295;-77
2022/02/13 00:48:50;;;;;;;16.15;9.70;;;-0.50;80.90;;;;;;4999360;28;20204;-78
2022/02/13 00:51:18;;;;;;;11.18;7.90;;;-0.50;80.90;;;;;;5006023;28;20206;-77
2022/02/13 00:53:45;;;;;;;11.90;7.60;;;-0.50;80.90;;;;;;5019087;28;20211;-76
2022/02/13 00:56:12;;;;;;;11.55;8.43;;;-0.50;80.90;;;;;;5014640;28;20203;-77
2022/02/13 00:58:39;;;;;;;14.60;8.07;;;-0.50;80.90;;;;;;4998930;28;20233;-77
2022/02/13 01:01:06;;;;;;;12.07;8.70;;;-0.50;80.70;;;;;;4998408;28;20641;-77
2022/02/13 01:03:33;;;;;;;11.45;7.80;;;-0.50;80.30;;;;;;4997342;28;20240;-76
2022/02/13 01:06:01;;;;;;;15.88;8.60;;;-0.60;80.10;;;;;;4996281;28;20207;-76
2022/02/13 01:08:29;;;;;;;14.15;8.70;;;-0.60;80.80;;;;;;4999579;28;20204;-76
2022/02/13 01:10:56;;;;;;;11.70;8.25;;;-0.60;80.80;;;;;;5015444;28;20215;-76
2022/02/13 01:13:23;;;;;;;17.27;9.25;;;-0.60;80.80;;;;;;5015707;28;20305;-76
2022/02/13 01:15:50;;;;;;;11.82;8.32;;;-0.60;80.80;;;;;;5015774;28;20294;-75
2022/02/13 01:18:17;;;;;;;18.20;10.07;;;-0.60;80.80;;;;;;5013325;28;20288;-75
2022/02/13 01:20:44;;;;;;;17.33;9.63;;;-0.70;80.70;;;;;;4997189;28;20209;-76
2022/02/13 01:23:11;;;;;;;17.00;10.18;;;-0.70;80.90;;;;;;4998145;28;20228;-75
2022/02/13 01:25:39;;;;;;;12.23;9.13;;;-0.70;81.90;;;;;;5000341;28;20217;-77
2022/02/13 01:28:06;;;;;;;14.32;9.25;;;-0.70;81.70;;;;;;5002881;28;20302;-75
2022/02/13 01:30:33;;;;;;;15.77;9.07;;;-0.70;82.30;;;;;;4999573;28;20272;-77
2022/02/13 01:33:00;;;;;;;14.63;8.80;;;-0.80;83.40;;;;;;5002100;28;20318;-77
2022/02/13 01:35:27;;;;;;;17.05;9.60;;;-0.80;82.50;;;;;;4998081;28;20209;-77
2022/02/13 01:37:54;;;;;;;13.27;8.48;;;-0.90;83.30;;;;;;5002661;28;20223;-75
2022/02/13 01:40:21;;;;;;;12.35;8.13;;;-0.90;84.60;;;;;;5016960;28;20246;-77
2022/02/13 01:42:49;;;;;;;11.85;8.80;;;-0.80;84.80;;;;;;5016111;28;20243;-75
2022/02/13 01:45:16;;;;;;;12.30;8.57;;;-0.80;84.90;;;;;;5015639;28;20218;-76
2022/02/13 01:47:43;;;;;;;15.02;9.35;;;-0.70;85.50;;;;;;5015451;28;20742;-76
2022/02/13 01:50:11;;;;;;;14.35;8.73;;;-0.70;84.80;;;;;;5014970;28;20259;-76
2022/02/13 01:52:39;;;;;;;14.25;9.07;;;-0.60;84.80;;;;;;5000596;28;20245;-75
2022/02/13 01:55:07;;;;;;;12.88;9.73;;;-0.60;83.70;;;;;;4995523;28;20280;-75
2022/02/13 01:57:34;;;;;;;14.98;9.73;;;-0.70;83.00;;;;;;5006748;28;20199;-76
2022/02/13 02:00:03;;;;;;;14.50;10.27;;;-0.70;82.90;;;;;;5014211;28;20232;-76
2022/02/13 02:02:30;;;;;;;13.93;9.38;;;-0.70;82.50;;;;;;5002721;28;20299;-76
2022/02/13 02:04:57;;;;;;;11.93;9.32;;;-0.80;82.80;;;;;;4995748;28;20240;-75
2022/02/13 02:07:25;;;;;;;11.65;8.38;;;-0.80;83.00;;;;;;4999297;28;20208;-75
2022/02/13 02:09:53;;;;;;;12.27;8.70;;;-0.80;82.90;;;;;;5016296;28;20231;-76
2022/02/13 02:12:20;;;;;;;13.32;8.65;;;-0.90;82.40;;;;;;4997420;28;20306;-76
2022/02/13 02:14:47;;;;;;;10.98;8.20;;;-0.90;83.60;;;;;;4996476;28;20215;-76
2022/02/13 02:17:16;;;;;;;15.93;8.85;;;-0.90;83.30;;;;;;4996177;28;20226;-75
2022/02/13 02:19:42;;;;;;;11.82;8.30;;;-0.90;83.80;;;;;;4996065;28;20270;-76
2022/02/13 02:22:10;;;;;;;9.65;7.53;;;-0.90;83.30;;;;;;4994475;28;20237;-75
2022/02/13 02:24:39;;;;;;;11.65;8.77;;;-1.00;82.70;;;;;;5006997;28;20223;-76
2022/02/13 02:27:06;;;;;;;10.77;7.43;;;-1.00;83.50;;;;;;5016909;28;20229;-75
2022/02/13 02:29:33;;;;;;;13.48;8.38;;;-1.00;83.90;;;;;;5014642;28;20576;-76
2022/02/13 02:32:00;;;;;;;15.38;8.77;;;-1.00;83.70;;;;;;4997625;28;20231;-76
2022/02/13 02:34:27;;;;;;;13.13;8.40;;;-1.00;84.20;;;;;;5010148;28;20204;-75
2022/02/13 02:36:54;;;;;;;11.07;8.40;;;-1.00;84.40;;;;;;5002589;28;20267;-75
2022/02/13 02:39:21;;;;;;;12.27;8.65;;;-1.00;84.50;;;;;;4996486;28;20224;-75
2022/02/13 02:41:50;;;;;;;14.88;9.07;;;-1.10;84.50;;;;;;4996981;28;20304;-75
2022/02/13 02:44:17;;;;;;;11.02;8.00;;;-1.10;84.70;;;;;;5004282;28;20295;-75
2022/02/13 02:46:44;;;;;;;12.18;8.90;;;-1.10;84.70;;;;;;5019544;28;20310;-75
2022/02/13 02:49:10;;;;;;;10.90;7.88;;;-1.10;85.40;;;;;;5019342;28;20238;-75
2022/02/13 02:51:37;;;;;;;9.63;7.57;;;-1.10;85.90;;;;;;5020695;28;20246;-75
2022/02/13 02:54:04;;;;;;;14.93;8.73;;;-1.10;86.10;;;;;;5021093;28;20206;-75
2022/02/13 02:56:31;;;;;;;14.73;7.93;;;-1.00;86.70;;;;;;5022300;28;20594;-76
2022/02/13 02:58:59;;;;;;;13.90;8.98;;;-1.00;86.20;;;;;;5021177;28;20619;-75
2022/02/13 03:01:26;;;;;;;12.70;8.00;;;-1.00;86.00;;;;;;5002347;28;20306;-75
2022/02/13 03:03:53;;;;;;;14.73;8.75;;;-1.00;86.10;;;;;;5015770;28;20260;-74
2022/02/13 03:06:20;;;;;;;12.55;8.30;;;-1.00;86.40;;;;;;5027549;28;20215;-75
2022/02/13 03:08:47;;;;;;;13.40;8.13;;;-1.10;85.60;;;;;;5022775;28;20339;-75
2022/02/13 03:11:14;;;;;;;16.35;9.20;;;-1.10;86.10;;;;;;5011972;28;20241;-76
2022/02/13 03:13:41;;;;;;;14.23;8.95;;;-1.10;86.20;;;;;;5022708;28;20184;-76
2022/02/13 03:16:09;;;;;;;11.35;8.10;;;-1.00;85.90;;;;;;5037040;28;20223;-76
2022/02/13 03:18:37;;;;;;;12.15;8.50;;;-1.10;85.40;;;;;;5026470;28;20210;-76
2022/02/13 03:21:04;;;;;;;13.07;9.13;;;-1.20;86.20;;;;;;5003398;28;20229;-75
2022/02/13 03:23:31;;;;;;;10.93;8.38;;;-1.10;86.40;;;;;;5009633;28;20245;-75
2022/02/13 03:25:58;;;;;;;12.95;8.65;;;-1.10;86.40;;;;;;5028516;28;20214;-75
2022/02/13 03:28:25;;;;;;;11.25;8.63;;;-1.10;86.00;;;;;;5022617;28;20223;-76
2022/02/13 03:30:52;;;;;;;13.15;8.10;;;-1.10;85.80;;;;;;5008693;28;20193;-75
2022/02/13 03:33:20;;;;;;;11.82;8.85;;;-1.10;85.60;;;;;;5014976;28;20211;-76
2022/02/13 03:35:47;;;;;;;12.95;9.05;;;-1.10;84.70;;;;;;5009814;28;20228;-75
2022/02/13 03:38:14;;;;;;;12.65;9.15;;;-1.20;84.80;;;;;;5000998;28;20305;-75
2022/02/13 03:40:41;;;;;;;13.60;8.43;;;-1.20;85.30;;;;;;4994121;28;20647;-77
2022/02/13 03:43:08;;;;;;;11.27;9.15;;;-1.20;85.40;;;;;;4994008;28;20274;-75
2022/02/13 03:45:36;;;;;;;12.15;8.40;;;-1.20;86.10;;;;;;4993999;28;20228;-75
2022/02/13 03:48:03;;;;;;;12.20;8.15;;;-1.20;85.50;;;;;;4993716;28;20306;-76
2022/02/13 03:50:31;;;;;;;13.27;8.30;;;-1.30;85.80;;;;;;4993768;28;20243;-75
2022/02/13 03:52:58;;;;;;;13.95;8.85;;;-1.30;85.60;;;;;;4993161;28;20386;-75
2022/02/13 03:55:25;;;;;;;13.85;8.40;;;-1.30;86.50;;;;;;5008044;28;20571;-75
2022/02/13 03:57:52;;;;;;;11.90;8.65;;;-1.30;86.80;;;;;;5013283;28;20303;-75
2022/02/13 04:00:19;;;;;;;16.05;9.13;;;-1.30;87.30;;;;;;4994537;28;20751;-74
2022/02/13 04:02:46;;;;;;;13.35;8.20;;;-1.30;87.30;;;;;;4992782;28;20283;-75
2022/02/13 04:05:13;;;;;;;12.20;8.32;;;-1.30;87.30;;;;;;4992829;28;20213;-76
2022/02/13 04:07:42;;;;;;;11.10;8.20;;;-1.20;87.20;;;;;;4993483;28;20696;-75
2022/02/13 04:10:12;;;;;;;15.07;9.38;;;-1.30;86.40;;;;;;4994401;28;20200;-75
2022/02/13 04:12:39;;;;;;;13.85;8.95;;;-1.30;86.30;;;;;;5009712;28;20223;-76
2022/02/13 04:15:07;;;;;;;13.63;9.05;;;-1.40;86.50;;;;;;5016223;28;20214;-75
2022/02/13 04:17:34;;;;;;;14.48;8.80;;;-1.40;86.40;;;;;;5014015;28;20264;-75
2022/02/13 04:20:01;;;;;;;10.82;8.15;;;-1.40;87.20;;;;;;5015863;28;20572;-75
2022/02/13 04:22:28;;;;;;;13.18;8.30;;;-1.40;88.10;;;;;;5016498;28;20309;-75
2022/02/13 04:24:57;;;;;;;12.35;8.52;;;-1.40;88.20;;;;;;4996025;28;20310;-76
2022/02/13 04:27:24;;;;;;;12.05;8.65;;;-1.40;88.20;;;;;;4996067;28;20266;-76
2022/02/13 04:29:51;;;;;;;16.88;9.55;;;-1.40;88.20;;;;;;4995655;28;20212;-76
2022/02/13 04:32:18;;;;;;;16.10;8.70;;;-1.40;88.20;;;;;;4994979;28;20262;-75
2022/02/13 04:34:46;;;;;;;11.68;8.27;;;-1.40;88.20;;;;;;4994772;28;20295;-75
2022/02/13 04:37:14;;;;;;;14.98;8.88;;;-1.40;88.20;;;;;;4997176;28;20226;-75
2022/02/13 04:39:43;;;;;;;13.38;9.20;;;-1.40;88.20;;;;;;5013060;28;20232;-75
2022/02/13 04:42:11;;;;;;;15.52;9.18;;;-1.40;88.20;;;;;;5010208;28;20258;-75
2022/02/13 04:44:38;;;;;;;16.27;9.73;;;-1.40;88.50;;;;;;4994282;28;20208;-75
2022/02/13 04:47:05;;;;;;;11.00;7.43;;;-1.40;88.20;;;;;;4994061;28;20216;-75
2022/02/13 04:49:32;;;;;;;14.23;8.77;;;-1.40;88.30;;;;;;5012418;28;20229;-75
2022/02/13 04:51:59;;;;;;;15.13;8.10;;;-1.40;88.30;;;;;;5033068;22;20224;-77
2022/02/13 04:54:26;;;;;;;10.57;7.78;;;-1.30;88.30;;;;;;4979133;28;20263;-78
2022/02/13 04:56:53;;;;;;;13.27;8.95;;;-1.40;88.20;;;;;;4978659;28;20689;-76
2022/02/13 04:59:25;;;;;;;11.32;8.05;;;-1.40;88.20;;;;;;4997527;28;20226;-76
2022/02/13 05:01:52;;;;;;;13.32;8.30;;;-1.30;88.30;;;;;;4997125;28;20236;-76
2022/02/13 05:04:19;;;;;;;12.98;8.05;;;-1.40;88.20;;;;;;4995998;28;20207;-77
2022/02/13 05:06:46;;;;;;;16.17;8.35;;;-1.40;88.20;;;;;;4995526;28;20211;-77
2022/02/13 05:09:12;;;;;;;12.88;7.95;;;-1.40;88.20;;;;;;4998940;28;20250;-77
2022/02/13 05:11:39;;;;;;;10.30;7.75;;;-1.30;88.30;;;;;;5002193;28;20278;-76
2022/02/13 05:14:07;;;;;;;10.85;7.90;;;-1.30;88.30;;;;;;5006692;28;20212;-77
2022/02/13 05:16:37;;;;;;;11.10;8.27;;;-1.40;88.20;;;;;;5007975;28;20279;-76
2022/02/13 05:19:04;;;;;;;11.93;8.48;;;-1.30;88.30;;;;;;5008989;28;20220;-77
2022/02/13 05:21:31;;;;;;;10.00;7.85;;;-1.30;88.30;;;;;;5007371;28;20231;-77
2022/02/13 05:23:58;;;;;;;10.40;7.50;;;-1.40;88.20;;;;;;5019628;28;20226;-77
2022/02/13 05:26:25;;;;;;;11.52;7.30;;;-1.40;88.20;;;;;;5025936;28;20239;-77
2022/02/13 05:28:54;;;;;;;10.43;7.40;;;-1.40;88.20;;;;;;5024764;28;20216;-77
2022/02/13 05:31:21;;;;;;;14.57;7.53;;;-1.40;87.80;;;;;;5025588;28;20207;-78
2022/02/13 05:33:49;;;;;;;10.05;7.55;;;-1.40;88.20;;;;;;5030718;28;20215;-77
2022/02/13 05:36:16;;;;;;;11.00;7.78;;;-1.40;88.20;;;;;;5030025;28;20210;-77
2022/02/13 05:38:42;;;;;;;11.75;7.15;;;-1.40;88.20;;;;;;5015722;28;20223;-77
2022/02/13 05:41:09;;;;;;;9.30;7.38;;;-1.40;88.20;;;;;;5034191;28;20224;-76
2022/02/13 05:43:36;;;;;;;10.25;7.07;;;-1.40;87.90;;;;;;5018418;28;20242;-76
2022/02/13 05:46:03;;;;;;;13.93;7.35;;;-1.40;87.60;;;;;;5012111;28;20238;-76
2022/02/13 05:48:31;;;;;;;15.48;8.65;;;-1.40;88.80;;;;;;5002997;28;20212;-76
2022/02/13 05:51:00;;;;;;;12.77;7.55;;;-1.40;88.20;;;;;;5003873;28;20200;-76
2022/02/13 05:53:27;;;;;;;10.38;7.90;;;-1.40;88.20;;;;;;5018396;28;20238;-76
2022/02/13 05:55:54;;;;;;;12.13;8.23;;;-1.40;88.20;;;;;;5017985;28;20250;-77
2022/02/13 05:58:21;;;;;;;15.65;7.25;;;-1.50;88.00;;;;;;5017562;28;20308;-76
2022/02/13 06:00:48;;;;;;;17.13;8.35;;;-1.50;88.10;;;;;;5017106;28;20256;-76
2022/02/13 06:03:15;;;;;;;9.38;7.13;;;-1.50;88.10;;;;;;5018646;28;20235;-76
2022/02/13 06:05:41;;;;;;;11.98;8.05;;;-1.60;88.10;;;;;;5017315;28;20577;-76
2022/02/13 06:08:10;;;;;;;10.13;7.07;;;-1.60;88.30;;;;;;4999151;28;20201;-77
2022/02/13 06:10:38;;;;;;;12.15;7.47;;;-1.60;88.90;;;;;;5002113;28;20298;-77
2022/02/13 06:13:06;;;;;;;16.60;8.45;;;-1.70;89.20;;;;;;4983063;28;20312;-76
2022/02/13 06:15:33;;;;;;;10.60;8.05;;;-1.60;90.00;;;;;;4993070;28;20249;-76
2022/02/13 06:17:59;;;;;;;13.23;8.77;;;-1.60;90.10;;;;;;5035063;28;20215;-77
2022/02/13 06:20:26;;;;;;;15.02;8.00;;;-1.70;90.10;;;;;;5037559;28;20276;-77
2022/02/13 06:22:53;;;;;;;12.32;8.10;;;-1.70;90.30;;;;;;5018273;28;20273;-76
2022/02/13 06:25:22;;;;;;;12.80;8.02;;;-1.70;90.50;;;;;;5010819;28;20264;-76
2022/02/13 06:27:49;;;;;;;9.50;7.80;;;-1.70;90.50;;;;;;5011706;28;20208;-77
2022/02/13 06:30:16;;;;;;;11.15;7.47;;;-1.70;90.70;;;;;;5011912;28;20275;-77
2022/02/13 06:32:42;;;;;;;9.70;7.15;;;-1.70;90.80;;;;;;5024730;28;20258;-77
2022/02/13 06:35:09;;;;;;;10.63;7.70;;;-1.70;90.70;;;;;;5025177;28;20278;-76
2022/02/13 06:37:39;;;;;;;13.02;7.75;;;-1.70;90.70;;;;;;5016995;28;20659;-77
2022/02/13 06:40:07;;;;;;;13.77;8.15;;;-1.70;90.80;;;;;;5000237;28;20283;-77
2022/02/13 06:42:35;;;;;;;11.13;7.63;;;-1.70;90.80;;;;;;4998827;28;20302;-77
2022/02/13 06:45:02;;;;;;;13.15;7.18;;;-1.70;90.90;;;;;;4998361;28;20245;-78
2022/02/13 06:47:29;;;;;;;10.80;7.90;;;-1.70;90.80;;;;;;5014618;28;20245;-78
2022/02/13 06:49:56;;;;;;;11.60;7.38;;;-1.70;91.10;;;;;;5030518;28;20210;-78
2022/02/13 06:52:22;;;;;;;12.05;7.47;;;-1.60;91.00;;;;;;5011459;28;20239;-77
2022/02/13 06:54:49;;;;;;;11.98;7.72;;;-1.60;91.10;;;;;;5009972;28;20285;-79
2022/02/13 06:57:16;;;;;;;13.95;8.60;;;-1.60;91.10;;;;;;5008048;28;20238;-77
2022/02/13 06:59:44;;;;;;;10.88;7.03;;;-1.60;91.00;;;;;;5001589;28;20322;-78
2022/02/13 07:02:12;;;;;;;10.18;7.60;;;-1.50;91.10;;;;;;5015457;28;20270;-77
2022/02/13 07:04:39;;;;;;;12.50;7.35;;;-1.50;91.10;;;;;;5017018;28;20273;-76
2022/02/13 07:07:06;;;;;;;11.80;7.57;;;-1.40;91.20;;;;;;5001495;28;20216;-78
2022/02/13 07:09:33;;;;;;;10.43;7.38;;;-1.30;91.00;;;;;;5002164;28;20207;-78
2022/02/13 07:12:05;;;;;;;11.25;8.35;;;-1.30;91.00;;;;;;5018382;28;20227;-78
2022/02/13 07:14:32;;;;;;;12.68;7.68;;;-1.20;90.90;;;;;;5022892;28;20212;-76
2022/02/13 07:17:00;;;;;;;9.85;7.25;;;-1.10;90.60;;;;;;5001988;28;20205;-78
2022/02/13 07:19:28;;;;;;;12.55;7.55;;;-1.10;89.60;;;;;;4997143;28;20395;-78
2022/02/13 07:21:55;;;;;;;9.70;7.40;;;-1.10;88.50;;;;;;4996522;28;20695;-77
2022/02/13 07:24:22;;;;;;;10.07;7.03;;;-1.10;88.80;;;;;;5007357;28;20212;-77
2022/02/13 07:26:49;;;;;;;10.75;7.63;;;-1.00;88.50;;;;;;5006178;28;20211;-78
2022/02/13 07:29:16;;;;;;;9.02;6.70;;;-1.00;87.80;;;;;;5008282;28;20268;-78
2022/02/13 07:31:43;;;;;;;13.02;7.70;;;-0.90;87.50;;;;;;5002558;28;20232;-78
2022/02/13 07:34:11;;;;;;;11.77;7.18;;;-0.90;87.10;;;;;;4996835;28;20203;-77
2022/02/13 07:36:38;;;;;;;10.20;6.97;;;-0.90;85.90;;;;;;4996260;28;20298;-77
2022/02/13 07:39:06;;;;;;;13.70;8.05;;;-0.90;85.50;;;;;;4996587;28;20207;-77
2022/02/13 07:41:33;;;;;;;8.77;7.40;;;-0.70;85.70;;;;;;4997303;28;20224;-76
2022/02/13 07:44:00;;;;;;;12.45;8.55;;;-0.70;84.80;;;;;;4997412;28;20240;-76
2022/02/13 07:46:27;;;;;;;9.43;6.88;;;-0.70;84.60;;;;;;4996438;28;20215;-77
2022/02/13 07:48:54;;;;;;;10.70;7.45;;;-0.60;83.90;;;;;;4997449;28;20287;-76
2022/02/13 07:51:22;;;;;;;9.18;7.00;;;-0.60;83.60;;;;;;5013412;28;20206;-76
2022/02/13 07:53:49;;;;;;;14.20;8.23;;;-0.50;84.10;;;;;;5012240;28;20218;-78
2022/02/13 07:56:16;;;;;;;10.20;7.63;;;-0.30;83.80;;;;;;5016490;28;20250;-76
2022/02/13 07:58:43;;;;;;;8.88;6.38;;;-0.20;82.30;;;;;;5015570;28;20215;-77
2022/02/13 08:01:10;;;;;;;11.88;7.95;;;-0.10;81.70;;;;;;5016000;28;20237;-77
2022/02/13 08:03:37;;;;;;;10.13;7.38;;;-0.10;80.70;;;;;;5017329;28;20261;-78
2022/02/13 08:06:04;;;;;;;13.57;8.43;;;-0.10;80.60;;;;;;5017149;28;20212;-78
2022/02/13 08:08:36;;;;;;;9.20;7.20;;;0.10;80.30;;;;;;5017547;28;20607;-76
2022/02/13 08:11:03;;;;;;;11.38;7.72;;;0.20;79.40;;;;;;5017096;28;20207;-77
2022/02/13 08:13:30;;;;;;;10.02;7.03;;;0.30;78.50;;;;;;5017435;28;20236;-77
2022/02/13 08:15:57;;;;;;;9.90;7.20;;;0.30;77.40;;;;;;5015205;28;20212;-78
2022/02/13 08:18:24;;;;;;;11.25;6.70;;;0.20;75.50;;;;;;5017299;28;20211;-76
2022/02/13 08:20:54;;;;;;;9.95;6.80;;;0.30;75.50;;;;;;5003306;28;20606;-76
2022/02/13 08:23:22;;;;;;;10.43;7.72;;;0.50;75.80;;;;;;4999843;28;20236;-76
2022/02/13 08:25:51;;;;;;;9.48;6.82;;;0.60;75.40;;;;;;4998249;28;20219;-76
2022/02/13 08:28:19;;;;;;;13.70;7.82;;;0.80;74.90;;;;;;4995759;28;20298;-76
2022/02/13 08:30:46;;;;;;;12.32;7.75;;;0.90;73.80;;;;;;4995808;28;20645;-75
2022/02/13 08:33:13;;;;;;;10.68;7.72;;;0.90;72.30;;;;;;4996288;28;20303;-75
2022/02/13 08:35:40;;;;;;;10.52;7.68;;;1.10;73.00;;;;;;4996988;28;20209;-76
2022/02/13 08:38:08;;;;;;;11.77;8.02;;;1.20;70.90;;;;;;4992863;28;20208;-77
2022/02/13 08:40:36;;;;;;;10.07;7.80;;;1.30;70.60;;;;;;4997953;28;20430;-75
2022/02/13 08:43:06;;;;;;;10.55;6.78;;;1.30;69.90;;;;;;4985627;28;20272;-77
2022/02/13 08:45:34;;;;;;;10.43;6.60;;;1.50;70.00;;;;;;4995608;28;20212;-76
2022/02/13 08:48:01;;;;;;;14.27;7.82;;;1.60;69.50;;;;;;5003650;28;20205;-76
2022/02/13 08:50:29;;;;;;;11.45;7.47;;;1.60;68.60;;;;;;5012654;28;20200;-75
2022/02/13 08:52:56;;;;;;;9.43;7.00;;;1.70;67.80;;;;;;5012918;28;20228;-76
2022/02/13 08:55:23;;;;;;;9.07;7.00;;;1.90;67.70;;;;;;5012344;28;20205;-76
2022/02/13 08:57:51;;;;;;;12.52;7.68;;;2.00;67.40;;;;;;4998730;28;20269;-76
2022/02/13 09:00:20;;;;;;;9.85;7.03;;;2.20;67.00;;;;;;5014018;28;20292;-75
2022/02/13 09:02:48;;;;;;;10.43;7.88;;;2.30;65.90;;;;;;4997330;28;20285;-76
2022/02/13 09:05:16;;;;;;;12.00;8.13;;;2.40;65.10;;;;;;5008053;28;20200;-75
2022/02/13 09:07:43;;;;;;;9.88;7.90;;;2.60;64.80;;;;;;5010149;28;20205;-74
2022/02/13 09:10:13;;;;;;;9.63;7.40;;;2.80;63.80;;;;;;4995085;28;20212;-74
2022/02/13 09:12:41;;;;;;;11.93;8.55;;;2.90;62.50;;;;;;5010058;28;20224;-76
2022/02/13 09:15:09;;;;;;;8.45;7.25;;;2.90;62.50;;;;;;5013680;28;20209;-75
2022/02/13 09:17:37;;;;;;;13.88;8.82;;;3.00;61.60;;;;;;5002805;28;20217;-75
2022/02/13 09:20:06;;;;;;;10.65;8.05;;;3.10;61.30;;;;;;5004536;28;20551;-75
2022/02/13 09:22:32;;;;;;;10.35;8.02;;;3.30;60.70;;;;;;5004209;28;20275;-78
2022/02/13 09:24:59;;;;;;;14.77;8.38;;;3.50;60.20;;;;;;5005029;28;20217;-75
2022/02/13 09:27:26;;;;;;;10.38;7.80;;;3.60;59.40;;;;;;5007256;28;20313;-77
2022/02/13 09:29:54;;;;;;;9.40;7.55;;;3.70;58.80;;;;;;5008787;28;20205;-74
2022/02/13 09:32:21;;;;;;;11.73;8.25;;;3.90;58.60;;;;;;5010082;28;20220;-75
2022/02/13 09:34:49;;;;;;;13.88;7.95;;;4.00;57.90;;;;;;5010141;28;20578;-75
2022/02/13 09:37:16;;;;;;;12.57;7.68;;;4.10;57.60;;;;;;5012828;28;20268;-74
2022/02/13 09:39:43;;;;;;;12.18;9.18;;;4.20;57.20;;;;;;5009074;28;20220;-75
2022/02/13 09:42:11;;;;;;;11.40;8.07;;;4.40;56.50;;;;;;5011295;28;20233;-75
2022/02/13 09:44:39;;;;;;;11.35;8.15;;;4.50;55.40;;;;;;5017300;28;20290;-75
2022/02/13 09:47:07;;;;;;;10.80;8.38;;;4.60;55.00;;;;;;5029948;28;20212;-74
2022/02/13 09:49:34;;;;;;;9.77;7.28;;;4.70;55.10;;;;;;5012494;28;20201;-75
2022/02/13 09:52:02;;;;;;;13.60;8.25;;;4.70;55.10;;;;;;4989209;28;20241;-76
2022/02/13 09:54:29;;;;;;;13.35;8.98;;;4.80;54.30;;;;;;5030747;28;20208;-75
2022/02/13 09:57:59;;;;;;;12.30;8.95;;;4.80;54.10;;;;;;5032803;28;20302;-74
2022/02/13 09:59:54;;;;;;;12.55;8.55;;;4.90;53.90;;;;;;4995554;28;20206;-76
2022/02/13 10:02:45;;;;;;;11.32;8.55;;;5.10;53.80;;;;;;4997900;28;20229;-76
2022/02/13 10:05:15;;;;;;;11.30;8.18;;;5.20;53.30;;;;;;5005158;28;20213;-74
2022/02/13 10:07:43;;;;;;;11.48;8.35;;;5.30;52.40;;;;;;5015967;28;20202;-75
2022/02/13 10:10:11;;;;;;;11.02;7.93;;;5.30;52.10;;;;;;5019862;28;20283;-76
2022/02/13 10:12:42;;;;;;;12.25;8.60;;;5.40;52.10;;;;;;5036853;28;20228;-78
2022/02/13 10:15:30;;;;;;;10.73;9.38;;;5.50;51.90;;;;;;5035731;28;20254;-74
2022/02/13 10:17:59;;;;;;;10.73;8.80;;;5.50;51.10;;;;;;5019850;28;20278;-75
2022/02/13 10:20:27;;;;;;;10.60;8.93;;;5.70;51.30;;;;;;4998375;28;20309;-74
2022/02/13 10:22:55;;;;;;;10.23;8.77;;;5.60;51.10;;;;;;5015135;28;20236;-74
2022/02/13 10:25:22;;;;;;;19.17;8.80;;;5.80;51.10;;;;;;5019625;28;20212;-75
2022/02/13 10:27:50;;;;;;;10.55;8.63;;;5.90;50.60;;;;;;5006155;28;20273;-75
2022/02/13 10:30:35;;;;;;;9.90;8.35;;;5.90;50.20;;;;;;5000693;28;20396;-75
2022/02/13 10:33:16;;;;;;;9.57;7.85;;;6.10;50.20;;;;;;5027870;28;20215;-74
2022/02/13 10:36:01;;;;;;;9.45;8.30;;;6.20;50.00;;;;;;5028531;28;20212;-75
2022/02/13 10:38:31;;;;;;;11.35;8.20;;;6.30;49.60;;;;;;5007804;28;20203;-76
2022/02/13 10:41:11;;;;;;;14.20;9.65;;;6.30;48.90;;;;;;5013460;28;20233;-76
2022/02/13 10:43:53;;;;;;;10.98;8.70;;;6.50;48.90;;;;;;5007197;28;20240;-75
2022/02/13 10:46:21;;;;;;;10.18;8.80;;;6.60;48.70;;;;;;4997567;28;20236;-75
2022/02/13 10:48:48;;;;;;;11.88;9.40;;;6.70;48.50;;;;;;5012746;28;20217;-77
2022/02/13 10:51:15;;;;;;;11.80;8.82;;;6.80;48.40;;;;;;5017886;28;20424;-77
2022/02/13 10:53:45;;;;;;;12.30;8.93;;;6.90;47.50;;;;;;5021280;23;20229;-75
2022/02/13 10:56:13;;;;;;;9.52;8.55;;;7.00;47.60;;;;;;4998963;28;20549;-76
2022/02/13 10:58:55;;;;;;;11.95;8.98;;;7.20;47.80;;;;;;5000850;28;20238;-75
2022/02/13 11:01:24;;;;;;;10.88;8.45;;;7.30;47.90;;;;;;5000192;28;20233;-76
2022/02/13 11:04:03;;;;;;;12.60;9.27;;;7.50;47.50;;;;;;5000074;28;20258;-77
2022/02/13 11:06:31;;;;;;;10.88;8.55;;;7.60;47.30;;;;;;5001537;28;20767;-76
2022/02/13 11:09:04;;;;;;;11.88;7.95;;;7.70;46.80;;;;;;5005281;28;20223;-76
2022/02/13 11:11:32;;;;;;;10.65;7.88;;;7.80;46.10;;;;;;5000941;28;20216;-76
2022/02/13 11:13:59;;;;;;;13.98;8.18;;;7.90;46.30;;;;;;4997333;28;20231;-76
2022/02/13 11:16:34;;;;;;;13.45;8.20;;;8.00;46.10;;;;;;5006073;28;20274;-75
2022/02/13 11:19:05;;;;;;;12.20;8.48;;;8.10;45.60;;;;;;4964851;28;20257;-76
2022/02/13 11:21:33;;;;;;;9.48;7.65;;;8.20;45.40;;;;;;4949318;29;20226;-77
2022/02/13 11:24:03;;;;;;;11.02;9.02;;;8.30;45.20;;;;;;4947876;29;20553;-77
2022/02/13 11:26:44;;;;;;;14.65;8.45;;;8.40;44.90;;;;;;4944645;29;20251;-77
2022/02/13 11:29:12;;;;;;;14.10;8.55;;;8.50;44.70;;;;;;4953388;28;20259;-77
2022/02/13 11:31:49;;;;;;;9.20;7.88;;;8.60;44.20;;;;;;4961176;28;20205;-78
2022/02/13 11:34:40;;;;;;;8.95;8.05;;;8.70;44.30;;;;;;4945890;29;20198;-77
2022/02/13 11:37:11;;;;;;;12.90;7.60;;;8.80;44.10;;;;;;4946612;29;20234;-78
2022/02/13 11:39:45;;;;;;;11.48;7.65;;;8.90;43.90;;;;;;4948139;29;20202;-78
2022/02/13 11:42:15;;;;;;;11.13;7.80;;;9.10;43.50;;;;;;4953695;29;20225;-77
2022/02/13 11:44:57;;;;;;;9.57;8.05;;;9.20;43.30;;;;;;4933246;29;20206;-79
2022/02/13 11:47:40;;;;;;;14.25;7.90;;;9.30;43.20;;;;;;4945350;29;20208;-78
2022/02/13 11:50:28;;;;;;;11.30;7.25;;;9.40;42.90;;;;;;4930774;29;20210;-75
2022/02/13 11:52:57;;;;;;;10.30;7.30;;;9.40;42.70;;;;;;4938633;29;20387;-75
2022/02/13 11:55:28;;;;;;;9.95;6.93;;;9.60;42.50;;;;;;4939665;29;20212;-75
2022/02/13 11:57:57;;;;;;;8.20;6.60;;;9.60;41.60;;;;;;4944622;29;20209;-76
2022/02/13 12:00:39;;;;;;;8.90;6.47;;;9.80;41.30;;;;;;4942362;29;20288;-76
2022/02/13 12:03:21;;;;;;;10.35;7.28;;;9.90;41.10;;;;;;4949849;29;20232;-75
2022/02/13 12:05:53;;;;;;;8.32;6.32;;;10.00;39.50;;;;;;4950214;29;20209;-75
2022/02/13 12:08:23;;;;;;;8.65;6.65;;;10.10;39.60;;;;;;4954065;29;20695;-75
2022/02/13 12:11:02;;;;;;;10.23;7.20;;;10.20;39.70;;;;;;4942596;29;20269;-76
2022/02/13 12:13:29;;;;;;;7.55;6.75;;;10.20;39.70;;;;;;4947360;29;20284;-75
2022/02/13 12:15:57;;;;;;;10.85;6.40;;;10.30;39.80;;;;;;4955614;29;20202;-76
2022/02/13 12:18:24;;;;;;;8.73;6.85;;;10.40;39.80;;;;;;4956415;29;20281;-74
2022/02/13 12:20:58;;;;;;;6.85;5.68;;;10.40;38.80;;;;;;4956517;29;20198;-75
2022/02/13 12:23:26;;;;;;;11.80;7.00;;;10.40;38.10;;;;;;4957838;28;20259;-76
2022/02/13 12:25:54;;;;;;;8.35;7.00;;;10.40;37.90;;;;;;4955733;28;20221;-75
2022/02/13 12:28:21;;;;;;;9.38;7.00;;;10.50;37.90;;;;;;4954137;29;20226;-74
2022/02/13 12:30:50;;;;;;;9.55;6.97;;;10.60;37.10;;;;;;4954004;29;20237;-75
2022/02/13 12:33:20;;;;;;;8.88;6.90;;;10.70;36.90;;;;;;4952860;29;20230;-73
2022/02/13 12:35:47;;;;;;;8.75;6.07;;;10.80;36.40;;;;;;4954703;29;20578;-74
2022/02/13 12:38:14;;;;;;;10.45;7.05;;;10.80;36.00;;;;;;4949768;29;20637;-74
2022/02/13 12:40:44;;;;;;;9.25;6.47;;;10.90;36.00;;;;;;4940069;29;20210;-77
2022/02/13 12:43:17;;;;;;;10.05;6.10;;;11.00;35.40;;;;;;4945966;28;20230;-75
2022/02/13 12:45:46;;;;;;;6.90;5.65;;;11.00;35.00;;;;;;4942563;29;20645;-75
2022/02/13 12:48:15;;;;;;;8.98;6.40;;;11.10;35.30;;;;;;4942448;29;20223;-75